sensor_id;sensor_type;location;lat;lon;timestamp;temperature;humidity
70107;DHT22;57473;37.508;15.080;2022-09-09T00:02:21;27.30;64.40
70107;DHT22;57473;37.508;15.080;2022-09-09T00:05:01;27.30;64.40
70107;DHT22;57473;37.508;15.080;2022-09-09T00:07:45;27.30;64.40
70107;DHT22;57473;37.508;15.080;2022-09-09T00:10:27;27.30;64.50
70107;DHT22;57473;37.508;15.080;2022-09-09T00:15:26;27.30;64.40
70107;DHT22;57473;37.508;15.080;2022-09-09T00:20:58;27.20;64.70
70107;DHT22;57473;37.508;15.080;2022-09-09T00:23:28;27.20;65.00
70107;DHT22;57473;37.508;15.080;2022-09-09T00:28:57;27.10;65.60
70107;DHT22;57473;37.508;15.080;2022-09-09T00:31:29;27.00;65.70
70107;DHT22;57473;37.508;15.080;2022-09-09T00:34:19;27.00;65.60
70107;DHT22;57473;37.508;15.080;2022-09-09T00:36:50;27.00;65.40
70107;DHT22;57473;37.508;15.080;2022-09-09T00:39:37;27.00;65.10
70107;DHT22;57473;37.508;15.080;2022-09-09T00:42:15;27.00;65.00
70107;DHT22;57473;37.508;15.080;2022-09-09T00:44:53;27.00;65.00
70107;DHT22;57473;37.508;15.080;2022-09-09T00:47:49;27.00;64.90
70107;DHT22;57473;37.508;15.080;2022-09-09T00:55:39;27.10;64.70
70107;DHT22;57473;37.508;15.080;2022-09-09T00:58:09;27.10;65.00
70107;DHT22;57473;37.508;15.080;2022-09-09T01:00:59;27.00;65.10
70107;DHT22;57473;37.508;15.080;2022-09-09T01:03:48;27.00;65.40
70107;DHT22;57473;37.508;15.080;2022-09-09T01:06:32;26.90;65.60
70107;DHT22;57473;37.508;15.080;2022-09-09T01:12:01;26.90;65.80
70107;DHT22;57473;37.508;15.080;2022-09-09T01:14:38;26.80;65.90
70107;DHT22;57473;37.508;15.080;2022-09-09T01:17:22;26.80;65.90
70107;DHT22;57473;37.508;15.080;2022-09-09T01:20:27;26.80;65.70
70107;DHT22;57473;37.508;15.080;2022-09-09T01:28:33;26.80;66.00
70107;DHT22;57473;37.508;15.080;2022-09-09T01:31:10;26.80;66.10
70107;DHT22;57473;37.508;15.080;2022-09-09T01:33:42;26.80;66.00
70107;DHT22;57473;37.508;15.080;2022-09-09T01:38:50;26.70;65.90
70107;DHT22;57473;37.508;15.080;2022-09-09T01:41:18;26.80;65.60
70107;DHT22;57473;37.508;15.080;2022-09-09T01:43:52;26.70;65.40
70107;DHT22;57473;37.508;15.080;2022-09-09T01:46:22;26.80;65.10
70107;DHT22;57473;37.508;15.080;2022-09-09T01:48:51;26.80;64.90
70107;DHT22;57473;37.508;15.080;2022-09-09T01:51:19;26.80;64.80
70107;DHT22;57473;37.508;15.080;2022-09-09T01:53:48;26.80;64.60
70107;DHT22;57473;37.508;15.080;2022-09-09T01:56:32;26.80;64.20
70107;DHT22;57473;37.508;15.080;2022-09-09T01:59:26;26.90;63.90
70107;DHT22;57473;37.508;15.080;2022-09-09T02:02:17;26.80;63.80
70107;DHT22;57473;37.508;15.080;2022-09-09T02:10:24;26.90;63.20
70107;DHT22;57473;37.508;15.080;2022-09-09T02:13:13;26.90;63.10
70107;DHT22;57473;37.508;15.080;2022-09-09T02:18:32;26.90;62.80
70107;DHT22;57473;37.508;15.080;2022-09-09T02:21:02;26.90;62.60
70107;DHT22;57473;37.508;15.080;2022-09-09T02:23:31;26.90;62.20
70107;DHT22;57473;37.508;15.080;2022-09-09T02:26:08;26.90;62.00
70107;DHT22;57473;37.508;15.080;2022-09-09T02:28:38;26.90;61.90
70107;DHT22;57473;37.508;15.080;2022-09-09T02:31:06;26.90;61.70
70107;DHT22;57473;37.508;15.080;2022-09-09T02:33:42;26.90;61.60
70107;DHT22;57473;37.508;15.080;2022-09-09T02:36:14;26.90;61.70
70107;DHT22;57473;37.508;15.080;2022-09-09T02:38:46;26.90;61.50
70107;DHT22;57473;37.508;15.080;2022-09-09T02:41:27;26.90;61.30
70107;DHT22;57473;37.508;15.080;2022-09-09T02:43:58;26.90;61.10
70107;DHT22;57473;37.508;15.080;2022-09-09T02:49:28;26.90;60.60
70107;DHT22;57473;37.508;15.080;2022-09-09T02:52:07;27.00;60.20
70107;DHT22;57473;37.508;15.080;2022-09-09T02:54:41;27.00;59.60
70107;DHT22;57473;37.508;15.080;2022-09-09T02:57:16;27.00;59.30
70107;DHT22;57473;37.508;15.080;2022-09-09T02:59:47;27.10;59.30
70107;DHT22;57473;37.508;15.080;2022-09-09T03:02:16;27.10;59.10
70107;DHT22;57473;37.508;15.080;2022-09-09T03:04:47;27.10;58.80
70107;DHT22;57473;37.508;15.080;2022-09-09T03:07:19;27.10;58.50
70107;DHT22;57473;37.508;15.080;2022-09-09T03:09:48;27.10;58.20
70107;DHT22;57473;37.508;15.080;2022-09-09T03:12:16;27.10;58.00
70107;DHT22;57473;37.508;15.080;2022-09-09T03:14:44;27.10;57.90
70107;DHT22;57473;37.508;15.080;2022-09-09T03:17:13;27.10;57.70
70107;DHT22;57473;37.508;15.080;2022-09-09T03:19:47;27.20;57.60
70107;DHT22;57473;37.508;15.080;2022-09-09T03:22:16;27.20;57.60
70107;DHT22;57473;37.508;15.080;2022-09-09T03:24:45;27.10;57.80
70107;DHT22;57473;37.508;15.080;2022-09-09T03:27:14;27.10;58.20
70107;DHT22;57473;37.508;15.080;2022-09-09T03:29:42;27.00;58.30
70107;DHT22;57473;37.508;15.080;2022-09-09T03:32:13;26.90;58.20
70107;DHT22;57473;37.508;15.080;2022-09-09T03:34:45;26.90;57.70
70107;DHT22;57473;37.508;15.080;2022-09-09T03:37:18;26.90;57.40
70107;DHT22;57473;37.508;15.080;2022-09-09T03:39:47;26.90;57.10
70107;DHT22;57473;37.508;15.080;2022-09-09T03:42:16;26.90;56.80
70107;DHT22;57473;37.508;15.080;2022-09-09T03:44:50;26.90;56.80
70107;DHT22;57473;37.508;15.080;2022-09-09T03:47:21;26.90;56.90
70107;DHT22;57473;37.508;15.080;2022-09-09T03:49:52;26.90;56.90
70107;DHT22;57473;37.508;15.080;2022-09-09T03:52:19;26.80;57.10
70107;DHT22;57473;37.508;15.080;2022-09-09T03:54:53;26.80;57.00
70107;DHT22;57473;37.508;15.080;2022-09-09T03:57:21;26.80;57.10
70107;DHT22;57473;37.508;15.080;2022-09-09T03:59:49;26.70;57.20
70107;DHT22;57473;37.508;15.080;2022-09-09T04:02:16;26.70;57.10
70107;DHT22;57473;37.508;15.080;2022-09-09T04:04:44;26.70;57.20
70107;DHT22;57473;37.508;15.080;2022-09-09T04:07:11;26.70;57.00
70107;DHT22;57473;37.508;15.080;2022-09-09T04:09:39;26.70;57.30
70107;DHT22;57473;37.508;15.080;2022-09-09T04:12:07;26.60;57.50
70107;DHT22;57473;37.508;15.080;2022-09-09T04:14:35;26.60;57.70
70107;DHT22;57473;37.508;15.080;2022-09-09T04:17:04;26.50;58.00
70107;DHT22;57473;37.508;15.080;2022-09-09T04:19:33;26.50;58.40
70107;DHT22;57473;37.508;15.080;2022-09-09T04:22:01;26.40;58.70
70107;DHT22;57473;37.508;15.080;2022-09-09T04:24:29;26.40;58.80
70107;DHT22;57473;37.508;15.080;2022-09-09T04:26:58;26.30;59.10
70107;DHT22;57473;37.508;15.080;2022-09-09T04:29:25;26.20;59.20
70107;DHT22;57473;37.508;15.080;2022-09-09T04:31:53;26.20;59.60
70107;DHT22;57473;37.508;15.080;2022-09-09T04:34:20;26.20;59.60
70107;DHT22;57473;37.508;15.080;2022-09-09T04:36:48;26.20;59.40
70107;DHT22;57473;37.508;15.080;2022-09-09T04:39:15;26.20;59.30
70107;DHT22;57473;37.508;15.080;2022-09-09T04:41:43;26.20;59.50
70107;DHT22;57473;37.508;15.080;2022-09-09T04:44:11;26.20;60.00
70107;DHT22;57473;37.508;15.080;2022-09-09T04:46:38;26.20;60.60
70107;DHT22;57473;37.508;15.080;2022-09-09T04:49:06;26.10;61.20
70107;DHT22;57473;37.508;15.080;2022-09-09T04:51:39;26.00;62.00
70107;DHT22;57473;37.508;15.080;2022-09-09T04:54:06;25.90;62.30
70107;DHT22;57473;37.508;15.080;2022-09-09T04:56:36;25.80;62.90
70107;DHT22;57473;37.508;15.080;2022-09-09T04:59:03;25.80;62.80
70107;DHT22;57473;37.508;15.080;2022-09-09T05:01:41;25.80;62.90
70107;DHT22;57473;37.508;15.080;2022-09-09T05:04:10;25.70;62.80
70107;DHT22;57473;37.508;15.080;2022-09-09T05:06:38;25.80;63.00
70107;DHT22;57473;37.508;15.080;2022-09-09T05:09:05;25.70;63.00
70107;DHT22;57473;37.508;15.080;2022-09-09T05:11:33;25.70;62.90
70107;DHT22;57473;37.508;15.080;2022-09-09T05:14:39;25.70;62.70
70107;DHT22;57473;37.508;15.080;2022-09-09T05:17:07;25.70;62.30
70107;DHT22;57473;37.508;15.080;2022-09-09T05:19:37;25.70;62.00
70107;DHT22;57473;37.508;15.080;2022-09-09T05:22:04;25.80;61.90
70107;DHT22;57473;37.508;15.080;2022-09-09T05:24:39;25.80;61.60
70107;DHT22;57473;37.508;15.080;2022-09-09T05:27:07;25.80;61.50
70107;DHT22;57473;37.508;15.080;2022-09-09T05:29:35;25.90;61.20
70107;DHT22;57473;37.508;15.080;2022-09-09T05:32:05;25.90;61.20
70107;DHT22;57473;37.508;15.080;2022-09-09T05:34:34;25.90;61.20
70107;DHT22;57473;37.508;15.080;2022-09-09T05:37:06;26.00;60.70
70107;DHT22;57473;37.508;15.080;2022-09-09T05:39:36;26.00;60.50
70107;DHT22;57473;37.508;15.080;2022-09-09T05:42:04;26.10;59.90
70107;DHT22;57473;37.508;15.080;2022-09-09T05:44:32;26.20;59.40
70107;DHT22;57473;37.508;15.080;2022-09-09T05:47:00;26.30;59.00
70107;DHT22;57473;37.508;15.080;2022-09-09T05:49:28;26.50;58.20
70107;DHT22;57473;37.508;15.080;2022-09-09T05:51:55;26.60;57.80
70107;DHT22;57473;37.508;15.080;2022-09-09T05:54:23;26.70;57.50
70107;DHT22;57473;37.508;15.080;2022-09-09T05:56:51;26.80;56.90
70107;DHT22;57473;37.508;15.080;2022-09-09T05:59:20;26.90;56.40
70107;DHT22;57473;37.508;15.080;2022-09-09T06:01:54;27.00;56.20
70107;DHT22;57473;37.508;15.080;2022-09-09T06:04:30;27.10;55.40
70107;DHT22;57473;37.508;15.080;2022-09-09T06:06:59;27.30;54.90
70107;DHT22;57473;37.508;15.080;2022-09-09T06:09:27;27.40;54.70
70107;DHT22;57473;37.508;15.080;2022-09-09T06:11:55;27.50;54.20
70107;DHT22;57473;37.508;15.080;2022-09-09T06:14:22;27.60;53.60
70107;DHT22;57473;37.508;15.080;2022-09-09T06:16:51;27.80;53.30
70107;DHT22;57473;37.508;15.080;2022-09-09T06:19:24;27.90;52.90
70107;DHT22;57473;37.508;15.080;2022-09-09T06:21:57;28.00;52.40
70107;DHT22;57473;37.508;15.080;2022-09-09T06:24:27;28.20;51.40
70107;DHT22;57473;37.508;15.080;2022-09-09T06:26:58;28.40;50.70
70107;DHT22;57473;37.508;15.080;2022-09-09T06:29:30;28.60;49.60
70107;DHT22;57473;37.508;15.080;2022-09-09T06:31:58;28.80;48.80
70107;DHT22;57473;37.508;15.080;2022-09-09T06:34:26;28.90;48.50
70107;DHT22;57473;37.508;15.080;2022-09-09T06:36:56;29.10;48.30
70107;DHT22;57473;37.508;15.080;2022-09-09T06:39:30;29.20;47.90
70107;DHT22;57473;37.508;15.080;2022-09-09T06:41:58;29.30;47.90
70107;DHT22;57473;37.508;15.080;2022-09-09T06:44:45;29.40;47.70
70107;DHT22;57473;37.508;15.080;2022-09-09T06:47:20;29.50;47.00
70107;DHT22;57473;37.508;15.080;2022-09-09T06:49:54;29.50;47.20
70107;DHT22;57473;37.508;15.080;2022-09-09T06:52:24;29.70;47.20
70107;DHT22;57473;37.508;15.080;2022-09-09T06:54:53;29.80;46.90
70107;DHT22;57473;37.508;15.080;2022-09-09T06:57:21;29.90;46.60
70107;DHT22;57473;37.508;15.080;2022-09-09T07:00:10;30.00;46.20
70107;DHT22;57473;37.508;15.080;2022-09-09T07:02:39;30.10;45.90
70107;DHT22;57473;37.508;15.080;2022-09-09T07:05:09;30.20;45.90
70107;DHT22;57473;37.508;15.080;2022-09-09T07:07:38;30.30;45.60
70107;DHT22;57473;37.508;15.080;2022-09-09T07:10:06;30.40;45.90
70107;DHT22;57473;37.508;15.080;2022-09-09T07:12:36;30.50;45.40
70107;DHT22;57473;37.508;15.080;2022-09-09T07:15:08;30.50;45.50
70107;DHT22;57473;37.508;15.080;2022-09-09T07:17:38;30.50;45.40
70107;DHT22;57473;37.508;15.080;2022-09-09T07:20:06;30.60;45.70
70107;DHT22;57473;37.508;15.080;2022-09-09T07:22:34;30.60;45.30
70107;DHT22;57473;37.508;15.080;2022-09-09T07:25:01;30.60;45.50
70107;DHT22;57473;37.508;15.080;2022-09-09T07:27:29;30.70;45.40
70107;DHT22;57473;37.508;15.080;2022-09-09T07:29:57;30.60;45.30
70107;DHT22;57473;37.508;15.080;2022-09-09T07:32:25;30.70;45.10
70107;DHT22;57473;37.508;15.080;2022-09-09T07:34:52;30.80;45.50
70107;DHT22;57473;37.508;15.080;2022-09-09T07:37:20;30.90;44.50
70107;DHT22;57473;37.508;15.080;2022-09-09T07:39:49;31.00;44.50
70107;DHT22;57473;37.508;15.080;2022-09-09T07:42:18;31.10;43.80
70107;DHT22;57473;37.508;15.080;2022-09-09T07:44:47;31.20;43.90
70107;DHT22;57473;37.508;15.080;2022-09-09T07:47:16;31.30;44.10
70107;DHT22;57473;37.508;15.080;2022-09-09T07:49:46;31.40;43.40
70107;DHT22;57473;37.508;15.080;2022-09-09T07:52:23;31.50;43.70
70107;DHT22;57473;37.508;15.080;2022-09-09T07:54:55;31.60;43.40
70107;DHT22;57473;37.508;15.080;2022-09-09T07:57:23;31.80;43.10
70107;DHT22;57473;37.508;15.080;2022-09-09T07:59:52;31.80;43.00
70107;DHT22;57473;37.508;15.080;2022-09-09T08:02:20;31.90;43.20
70107;DHT22;57473;37.508;15.080;2022-09-09T08:04:48;32.10;43.10
70107;DHT22;57473;37.508;15.080;2022-09-09T08:07:17;32.20;43.30
70107;DHT22;57473;37.508;15.080;2022-09-09T08:09:50;32.40;42.70
70107;DHT22;57473;37.508;15.080;2022-09-09T08:12:22;32.50;42.80
70107;DHT22;57473;37.508;15.080;2022-09-09T08:14:50;32.50;42.70
70107;DHT22;57473;37.508;15.080;2022-09-09T08:17:22;32.50;42.50
70107;DHT22;57473;37.508;15.080;2022-09-09T08:19:49;32.60;43.10
70107;DHT22;57473;37.508;15.080;2022-09-09T08:22:21;32.60;42.50
70107;DHT22;57473;37.508;15.080;2022-09-09T08:24:51;32.80;42.30
70107;DHT22;57473;37.508;15.080;2022-09-09T08:27:19;32.90;42.10
70107;DHT22;57473;37.508;15.080;2022-09-09T08:29:47;33.00;41.60
70107;DHT22;57473;37.508;15.080;2022-09-09T08:32:14;33.10;42.20
70107;DHT22;57473;37.508;15.080;2022-09-09T08:34:43;33.10;41.70
70107;DHT22;57473;37.508;15.080;2022-09-09T08:37:18;33.20;42.30
70107;DHT22;57473;37.508;15.080;2022-09-09T08:39:48;33.20;41.90
70107;DHT22;57473;37.508;15.080;2022-09-09T08:45:12;33.30;42.30
70107;DHT22;57473;37.508;15.080;2022-09-09T08:50:35;33.10;43.90
70107;DHT22;57473;37.508;15.080;2022-09-09T08:55:44;33.30;44.00
70107;DHT22;57473;37.508;15.080;2022-09-09T08:58:15;33.50;43.90
70107;DHT22;57473;37.508;15.080;2022-09-09T09:01:17;33.70;43.90
70107;DHT22;57473;37.508;15.080;2022-09-09T09:13:01;34.50;42.70
70107;DHT22;57473;37.508;15.080;2022-09-09T09:15:35;34.60;42.40
70107;DHT22;57473;37.508;15.080;2022-09-09T09:18:04;34.70;41.90
70107;DHT22;57473;37.508;15.080;2022-09-09T09:20:52;34.70;41.90
70107;DHT22;57473;37.508;15.080;2022-09-09T09:23:24;34.70;41.50
70107;DHT22;57473;37.508;15.080;2022-09-09T09:25:59;34.80;41.00
70107;DHT22;57473;37.508;15.080;2022-09-09T09:28:31;34.90;40.90
70107;DHT22;57473;37.508;15.080;2022-09-09T09:31:10;34.90;40.40
70107;DHT22;57473;37.508;15.080;2022-09-09T09:36:08;35.20;40.00
70107;DHT22;57473;37.508;15.080;2022-09-09T09:38:39;35.40;40.10
70107;DHT22;57473;37.508;15.080;2022-09-09T09:41:34;35.40;39.90
70107;DHT22;57473;37.508;15.080;2022-09-09T09:44:04;35.50;39.60
70107;DHT22;57473;37.508;15.080;2022-09-09T09:46:32;35.60;39.60
70107;DHT22;57473;37.508;15.080;2022-09-09T09:49:11;35.60;39.20
70107;DHT22;57473;37.508;15.080;2022-09-09T09:51:42;35.50;39.30
70107;DHT22;57473;37.508;15.080;2022-09-09T09:56:43;35.70;39.80
70107;DHT22;57473;37.508;15.080;2022-09-09T10:02:23;35.90;39.70
70107;DHT22;57473;37.508;15.080;2022-09-09T10:05:08;36.00;40.10
70107;DHT22;57473;37.508;15.080;2022-09-09T10:07:43;36.00;40.30
70107;DHT22;57473;37.508;15.080;2022-09-09T10:10:22;36.10;39.20
70107;DHT22;57473;37.508;15.080;2022-09-09T10:18:42;36.40;37.20
70107;DHT22;57473;37.508;15.080;2022-09-09T10:21:43;36.60;36.80
70107;DHT22;57473;37.508;15.080;2022-09-09T10:52:33;36.70;37.80
70107;DHT22;57473;37.508;15.080;2022-09-09T10:55:14;36.90;38.10
70107;DHT22;57473;37.508;15.080;2022-09-09T10:57:48;37.10;37.90
70107;DHT22;57473;37.508;15.080;2022-09-09T11:00:19;37.30;38.30
70107;DHT22;57473;37.508;15.080;2022-09-09T11:02:59;37.70;37.30
70107;DHT22;57473;37.508;15.080;2022-09-09T11:05:30;37.80;37.30
70107;DHT22;57473;37.508;15.080;2022-09-09T11:08:03;38.20;36.80
70107;DHT22;57473;37.508;15.080;2022-09-09T11:10:42;38.50;36.30
70107;DHT22;57473;37.508;15.080;2022-09-09T11:13:19;38.90;35.30
70107;DHT22;57473;37.508;15.080;2022-09-09T11:15:52;39.10;35.20
70107;DHT22;57473;37.508;15.080;2022-09-09T11:18:22;39.50;35.30
70107;DHT22;57473;37.508;15.080;2022-09-09T11:20:59;39.80;34.20
70107;DHT22;57473;37.508;15.080;2022-09-09T11:26:08;39.80;33.90
70107;DHT22;57473;37.508;15.080;2022-09-09T11:29:07;39.90;34.20
70107;DHT22;57473;37.508;15.080;2022-09-09T11:31:46;40.10;33.30
70107;DHT22;57473;37.508;15.080;2022-09-09T11:34:56;40.10;33.80
70107;DHT22;57473;37.508;15.080;2022-09-09T11:40:56;39.90;34.20
70107;DHT22;57473;37.508;15.080;2022-09-09T11:43:31;40.10;34.00
70107;DHT22;57473;37.508;15.080;2022-09-09T11:46:01;40.40;33.40
70107;DHT22;57473;37.508;15.080;2022-09-09T11:48:33;40.50;33.50
70107;DHT22;57473;37.508;15.080;2022-09-09T11:51:13;40.60;34.00
70107;DHT22;57473;37.508;15.080;2022-09-09T11:53:58;41.00;34.20
70107;DHT22;57473;37.508;15.080;2022-09-09T11:56:32;41.40;33.00
70107;DHT22;57473;37.508;15.080;2022-09-09T11:59:25;41.30;33.20
70107;DHT22;57473;37.508;15.080;2022-09-09T12:02:13;41.60;32.50
70107;DHT22;57473;37.508;15.080;2022-09-09T12:10:25;42.30;31.70
70107;DHT22;57473;37.508;15.080;2022-09-09T12:12:53;42.10;32.00
70107;DHT22;57473;37.508;15.080;2022-09-09T12:15:28;42.30;31.60
70107;DHT22;57473;37.508;15.080;2022-09-09T12:17:58;42.30;31.60
70107;DHT22;57473;37.508;15.080;2022-09-09T12:23:37;42.00;31.90
70107;DHT22;57473;37.508;15.080;2022-09-09T12:26:34;42.20;31.80
70107;DHT22;57473;37.508;15.080;2022-09-09T12:29:16;42.30;33.10
70107;DHT22;57473;37.508;15.080;2022-09-09T12:32:06;42.40;33.80
70107;DHT22;57473;37.508;15.080;2022-09-09T12:34:49;42.50;34.50
70107;DHT22;57473;37.508;15.080;2022-09-09T12:40:20;42.40;34.90
70107;DHT22;57473;37.508;15.080;2022-09-09T12:42:48;42.40;35.10
70107;DHT22;57473;37.508;15.080;2022-09-09T12:45:23;42.40;34.80
70107;DHT22;57473;37.508;15.080;2022-09-09T12:48:17;42.50;33.40
70107;DHT22;57473;37.508;15.080;2022-09-09T12:50:49;41.70;35.20
70107;DHT22;57473;37.508;15.080;2022-09-09T12:56:25;41.80;34.50
70107;DHT22;57473;37.508;15.080;2022-09-09T12:58:57;41.80;34.70
70107;DHT22;57473;37.508;15.080;2022-09-09T13:01:32;42.10;34.70
70107;DHT22;57473;37.508;15.080;2022-09-09T13:04:00;42.00;35.20
70107;DHT22;57473;37.508;15.080;2022-09-09T13:06:32;42.30;35.20
70107;DHT22;57473;37.508;15.080;2022-09-09T13:09:01;42.20;34.70
70107;DHT22;57473;37.508;15.080;2022-09-09T13:11:49;42.20;35.10
70107;DHT22;57473;37.508;15.080;2022-09-09T13:14:32;41.60;36.30
70107;DHT22;57473;37.508;15.080;2022-09-09T13:17:03;40.70;37.80
70107;DHT22;57473;37.508;15.080;2022-09-09T13:19:37;40.40;38.20
70107;DHT22;57473;37.508;15.080;2022-09-09T13:22:13;40.50;37.30
70107;DHT22;57473;37.508;15.080;2022-09-09T13:24:41;40.70;37.30
70107;DHT22;57473;37.508;15.080;2022-09-09T13:29:56;41.20;36.00
70107;DHT22;57473;37.508;15.080;2022-09-09T13:32:25;41.10;36.60
70107;DHT22;57473;37.508;15.080;2022-09-09T13:34:55;41.10;36.80
70107;DHT22;57473;37.508;15.080;2022-09-09T13:37:25;41.00;37.70
70107;DHT22;57473;37.508;15.080;2022-09-09T13:39:54;40.40;38.40
70107;DHT22;57473;37.508;15.080;2022-09-09T13:42:28;40.00;39.00
70107;DHT22;57473;37.508;15.080;2022-09-09T13:44:57;39.70;39.10
70107;DHT22;57473;37.508;15.080;2022-09-09T13:47:32;39.50;39.30
70107;DHT22;57473;37.508;15.080;2022-09-09T13:50:20;39.40;39.80
70107;DHT22;57473;37.508;15.080;2022-09-09T13:52:52;39.10;40.20
70107;DHT22;57473;37.508;15.080;2022-09-09T13:55:22;38.60;39.80
70107;DHT22;57473;37.508;15.080;2022-09-09T13:57:55;38.20;40.60
70107;DHT22;57473;37.508;15.080;2022-09-09T14:00:23;37.80;41.80
70107;DHT22;57473;37.508;15.080;2022-09-09T14:02:53;37.70;42.70
70107;DHT22;57473;37.508;15.080;2022-09-09T14:05:22;37.50;43.30
70107;DHT22;57473;37.508;15.080;2022-09-09T14:07:50;37.20;43.20
70107;DHT22;57473;37.508;15.080;2022-09-09T14:10:19;36.90;43.70
70107;DHT22;57473;37.508;15.080;2022-09-09T14:12:46;36.70;43.30
70107;DHT22;57473;37.508;15.080;2022-09-09T14:15:14;36.70;43.90
70107;DHT22;57473;37.508;15.080;2022-09-09T14:17:42;36.60;45.80
70107;DHT22;57473;37.508;15.080;2022-09-09T14:20:10;36.40;46.70
70107;DHT22;57473;37.508;15.080;2022-09-09T14:22:39;36.10;47.90
70107;DHT22;57473;37.508;15.080;2022-09-09T14:25:07;35.80;49.10
70107;DHT22;57473;37.508;15.080;2022-09-09T14:27:34;35.70;48.70
70107;DHT22;57473;37.508;15.080;2022-09-09T14:30:02;35.70;49.80
70107;DHT22;57473;37.508;15.080;2022-09-09T14:32:29;35.80;50.30
70107;DHT22;57473;37.508;15.080;2022-09-09T14:34:56;35.70;50.80
70107;DHT22;57473;37.508;15.080;2022-09-09T14:37:24;35.70;50.50
70107;DHT22;57473;37.508;15.080;2022-09-09T14:39:51;35.50;51.40
70107;DHT22;57473;37.508;15.080;2022-09-09T14:42:19;35.40;51.00
70107;DHT22;57473;37.508;15.080;2022-09-09T14:44:46;35.40;50.90
70107;DHT22;57473;37.508;15.080;2022-09-09T14:47:15;35.10;52.00
70107;DHT22;57473;37.508;15.080;2022-09-09T14:49:47;35.00;52.40
70107;DHT22;57473;37.508;15.080;2022-09-09T14:52:16;35.00;52.70
70107;DHT22;57473;37.508;15.080;2022-09-09T14:54:43;34.90;51.30
70107;DHT22;57473;37.508;15.080;2022-09-09T14:57:11;34.60;52.80
70107;DHT22;57473;37.508;15.080;2022-09-09T14:59:38;34.40;52.90
70107;DHT22;57473;37.508;15.080;2022-09-09T15:02:10;34.40;53.20
70107;DHT22;57473;37.508;15.080;2022-09-09T15:04:37;34.30;53.50
70107;DHT22;57473;37.508;15.080;2022-09-09T15:07:05;34.20;54.60
70107;DHT22;57473;37.508;15.080;2022-09-09T15:09:32;34.10;55.10
70107;DHT22;57473;37.508;15.080;2022-09-09T15:11:59;34.10;54.70
70107;DHT22;57473;37.508;15.080;2022-09-09T15:14:28;34.10;54.20
70107;DHT22;57473;37.508;15.080;2022-09-09T15:16:56;34.20;54.00
70107;DHT22;57473;37.508;15.080;2022-09-09T15:19:23;34.10;54.60
70107;DHT22;57473;37.508;15.080;2022-09-09T15:21:51;34.10;54.50
70107;DHT22;57473;37.508;15.080;2022-09-09T15:24:18;34.10;54.90
70107;DHT22;57473;37.508;15.080;2022-09-09T15:26:46;34.20;55.00
70107;DHT22;57473;37.508;15.080;2022-09-09T15:29:15;34.20;54.70
70107;DHT22;57473;37.508;15.080;2022-09-09T15:31:43;34.30;53.10
70107;DHT22;57473;37.508;15.080;2022-09-09T15:34:10;34.40;51.50
70107;DHT22;57473;37.508;15.080;2022-09-09T15:36:40;34.50;51.10
70107;DHT22;57473;37.508;15.080;2022-09-09T15:39:10;34.60;51.40
70107;DHT22;57473;37.508;15.080;2022-09-09T15:41:40;34.60;51.20
70107;DHT22;57473;37.508;15.080;2022-09-09T15:44:08;34.50;52.70
70107;DHT22;57473;37.508;15.080;2022-09-09T15:46:41;34.50;46.20
70107;DHT22;57473;37.508;15.080;2022-09-09T15:49:14;34.50;49.10
70107;DHT22;57473;37.508;15.080;2022-09-09T15:51:45;34.60;49.80
70107;DHT22;57473;37.508;15.080;2022-09-09T15:54:14;34.50;51.60
70107;DHT22;57473;37.508;15.080;2022-09-09T15:56:45;34.50;50.00
70107;DHT22;57473;37.508;15.080;2022-09-09T15:59:16;34.40;49.90
70107;DHT22;57473;37.508;15.080;2022-09-09T16:01:43;34.30;50.10
70107;DHT22;57473;37.508;15.080;2022-09-09T16:04:11;34.20;51.00
70107;DHT22;57473;37.508;15.080;2022-09-09T16:06:39;34.20;46.80
70107;DHT22;57473;37.508;15.080;2022-09-09T16:09:07;34.20;43.50
70107;DHT22;57473;37.508;15.080;2022-09-09T16:11:37;34.30;42.80
70107;DHT22;57473;37.508;15.080;2022-09-09T16:14:06;34.40;42.30
70107;DHT22;57473;37.508;15.080;2022-09-09T16:16:34;34.40;42.30
70107;DHT22;57473;37.508;15.080;2022-09-09T16:19:11;34.40;42.20
70107;DHT22;57473;37.508;15.080;2022-09-09T16:21:48;34.40;42.20
70107;DHT22;57473;37.508;15.080;2022-09-09T16:24:17;34.40;42.30
70107;DHT22;57473;37.508;15.080;2022-09-09T16:26:47;34.40;42.30
70107;DHT22;57473;37.508;15.080;2022-09-09T16:29:17;34.30;42.40
70107;DHT22;57473;37.508;15.080;2022-09-09T16:31:48;34.20;42.60
70107;DHT22;57473;37.508;15.080;2022-09-09T16:34:17;34.10;43.00
70107;DHT22;57473;37.508;15.080;2022-09-09T16:36:45;34.10;43.20
70107;DHT22;57473;37.508;15.080;2022-09-09T16:39:18;34.00;43.50
70107;DHT22;57473;37.508;15.080;2022-09-09T16:41:47;33.90;43.50
70107;DHT22;57473;37.508;15.080;2022-09-09T16:44:16;33.80;43.90
70107;DHT22;57473;37.508;15.080;2022-09-09T16:46:47;33.80;44.00
70107;DHT22;57473;37.508;15.080;2022-09-09T16:49:16;33.70;44.00
70107;DHT22;57473;37.508;15.080;2022-09-09T16:51:50;33.60;44.20
70107;DHT22;57473;37.508;15.080;2022-09-09T16:54:20;33.50;44.40
70107;DHT22;57473;37.508;15.080;2022-09-09T16:56:48;33.40;44.90
70107;DHT22;57473;37.508;15.080;2022-09-09T16:59:20;33.30;45.60
70107;DHT22;57473;37.508;15.080;2022-09-09T17:01:50;33.20;45.60
70107;DHT22;57473;37.508;15.080;2022-09-09T17:04:21;33.10;45.20
70107;DHT22;57473;37.508;15.080;2022-09-09T17:06:50;32.90;45.70
70107;DHT22;57473;37.508;15.080;2022-09-09T17:09:18;32.80;46.00
70107;DHT22;57473;37.508;15.080;2022-09-09T17:11:46;32.70;46.30
70107;DHT22;57473;37.508;15.080;2022-09-09T17:14:17;32.60;47.00
70107;DHT22;57473;37.508;15.080;2022-09-09T17:16:45;32.50;47.30
70107;DHT22;57473;37.508;15.080;2022-09-09T17:19:18;32.40;47.80
70107;DHT22;57473;37.508;15.080;2022-09-09T17:21:45;32.30;48.80
70107;DHT22;57473;37.508;15.080;2022-09-09T17:24:35;32.20;48.90
70107;DHT22;57473;37.508;15.080;2022-09-09T17:27:07;32.10;49.40
70107;DHT22;57473;37.508;15.080;2022-09-09T17:29:34;32.10;49.80
70107;DHT22;57473;37.508;15.080;2022-09-09T17:32:03;32.00;50.30
70107;DHT22;57473;37.508;15.080;2022-09-09T17:34:33;31.90;51.10
70107;DHT22;57473;37.508;15.080;2022-09-09T17:37:00;31.80;51.70
70107;DHT22;57473;37.508;15.080;2022-09-09T17:39:28;31.80;52.30
70107;DHT22;57473;37.508;15.080;2022-09-09T17:41:56;31.70;52.60
70107;DHT22;57473;37.508;15.080;2022-09-09T17:44:25;31.60;53.00
70107;DHT22;57473;37.508;15.080;2022-09-09T17:46:53;31.50;53.50